createdAt,value
2024-04-12T00:00:44.703Z,101218.42
2024-04-12T00:03:20.882Z,101216.65
2024-04-12T00:06:12.255Z,101211.95
2024-04-12T00:08:58.440Z,101207.37
2024-04-12T00:11:32.964Z,101202.77
2024-04-12T00:17:18.629Z,101213.10
2024-04-12T00:20:08.419Z,101211.55
2024-04-12T00:22:45.884Z,101212.13
2024-04-12T00:25:26.349Z,101209.98
2024-04-12T00:28:08.548Z,101210.01
2024-04-12T00:30:40.225Z,101206.45
2024-04-12T00:33:13.339Z,101206.48
2024-04-12T00:35:48.555Z,101208.38
2024-04-12T00:38:32.604Z,101207.05
2024-04-12T00:41:19.745Z,101209.67
2024-04-12T00:44:04.676Z,101205.55
2024-04-12T00:46:53.762Z,101203.42
2024-04-12T00:49:32.067Z,101202.13
2024-04-12T00:52:08.933Z,101199.52
2024-04-12T00:54:55.029Z,101197.95
2024-04-12T00:57:55.315Z,101201.64
2024-04-12T01:00:36.581Z,101197.77
2024-04-12T01:03:17.001Z,101197.75
2024-04-12T01:06:02.167Z,101197.29
2024-04-12T01:08:38.473Z,101197.71
2024-04-12T01:11:22.751Z,101198.36
2024-04-12T01:14:04.293Z,101196.83
2024-04-12T01:16:44.138Z,101196.44
2024-04-12T01:19:34.522Z,101194.56
2024-04-12T01:22:27.802Z,101191.70
2024-04-12T01:25:31.757Z,101187.92
2024-04-12T01:28:05.528Z,101185.29
2024-04-12T01:30:42.604Z,101186.95
2024-04-12T01:33:31.081Z,101182.61
2024-04-12T01:36:25.515Z,101181.45
2024-04-12T01:39:23.878Z,101175.84
2024-04-12T01:42:10.761Z,101174.11
2024-04-12T01:45:10.181Z,101170.80
2024-04-12T01:47:47.553Z,101166.95
2024-04-12T01:50:25.938Z,101163.40
2024-04-12T01:53:03.874Z,101161.70
2024-04-12T01:55:48.506Z,101163.23
2024-04-12T01:58:24.907Z,101165.97
2024-04-12T02:01:12.150Z,101164.59
2024-04-12T02:03:53.766Z,101164.26
2024-04-12T02:06:31.282Z,101163.02
2024-04-12T02:09:15.252Z,101162.64
2024-04-12T02:12:00.876Z,101165.33
2024-04-12T02:14:33.926Z,101169.30
2024-04-12T02:17:21.272Z,101166.76
2024-04-12T02:20:11.357Z,101171.09
2024-04-12T02:22:53.108Z,101167.52
2024-04-12T02:25:59.581Z,101172.09
2024-04-12T02:28:30.638Z,101167.90
2024-04-12T02:31:19.792Z,101166.52
2024-04-12T02:33:56.364Z,101167.63
2024-04-12T02:36:38.058Z,101164.52
2024-04-12T02:39:14.990Z,101160.83
2024-04-12T02:42:29.730Z,101164.84
2024-04-12T02:45:13.114Z,101164.95
2024-04-12T02:48:13.013Z,101164.27
2024-04-12T02:50:58.230Z,101167.70
2024-04-12T02:53:33.970Z,101170.84
2024-04-12T02:56:38.237Z,101172.21
2024-04-12T02:59:21.576Z,101168.84
2024-04-12T03:02:00.721Z,101168.08
2024-04-12T03:04:34.286Z,101170.21
2024-04-12T03:07:27.290Z,101167.91
2024-04-12T03:10:07.907Z,101166.39
2024-04-12T03:12:50.396Z,101166.10
2024-04-12T03:15:55.439Z,101165.57
2024-04-12T03:18:26.748Z,101162.02
2024-04-12T03:21:08.525Z,101162.15
2024-04-12T03:24:08.090Z,101159.59
2024-04-12T03:26:40.040Z,101160.54
2024-04-12T03:29:13.725Z,101161.52
2024-04-12T03:31:43.303Z,101158.20
2024-04-12T03:37:27.348Z,101158.63
2024-04-12T03:40:30.642Z,101157.49
2024-04-12T03:43:24.219Z,101154.20
2024-04-12T03:46:21.882Z,101143.73
2024-04-12T03:49:05.141Z,101137.82
2024-04-12T03:51:39.725Z,101140.52
2024-04-12T03:54:57.567Z,101139.20
2024-04-12T03:57:42.196Z,101139.42
2024-04-12T04:00:52.044Z,101135.17
2024-04-12T04:03:34.881Z,101133.77
2024-04-12T04:06:13.229Z,101134.06
2024-04-12T04:08:58.543Z,101132.13
2024-04-12T04:11:32.190Z,101133.60
2024-04-12T04:14:08.458Z,101133.59
2024-04-12T04:16:57.246Z,101138.77
2024-04-12T04:19:37.375Z,101135.25
2024-04-12T04:22:41.171Z,101128.81
2024-04-12T04:25:23.939Z,101117.43
2024-04-12T04:27:58.013Z,101108.92
2024-04-12T04:30:37.446Z,101100.09
2024-04-12T04:33:16.544Z,101088.77
2024-04-12T04:36:14.769Z,101076.85
2024-04-12T04:38:53.794Z,101070.20
2024-04-12T04:41:38.191Z,101069.64
2024-04-12T04:44:35.052Z,101067.55
2024-04-12T04:47:35.077Z,101069.02
2024-04-12T04:50:21.707Z,101063.98
2024-04-12T04:53:10.104Z,101047.24
2024-04-12T04:56:02.558Z,101032.39
2024-04-12T04:58:47.695Z,101016.78
2024-04-12T05:01:34.687Z,101008.08
2024-04-12T05:04:18.664Z,101001.02
2024-04-12T05:06:58.850Z,101002.00
2024-04-12T05:09:51.512Z,101007.18
2024-04-12T05:12:34.271Z,101015.25
2024-04-12T05:15:24.775Z,101027.30
2024-04-12T05:18:02.773Z,101034.42
2024-04-12T05:20:56.825Z,101038.25
2024-04-12T05:23:42.791Z,101038.98
2024-04-12T05:26:18.315Z,101043.70
2024-04-12T05:29:00.331Z,101048.75
2024-04-12T05:31:47.517Z,101056.58
2024-04-12T05:34:36.989Z,101059.05
2024-04-12T05:37:12.127Z,101066.64
2024-04-12T05:40:02.180Z,101068.95
2024-04-12T05:42:47.705Z,101078.61
2024-04-12T05:45:47.736Z,101086.42
2024-04-12T05:48:28.630Z,101090.77
2024-04-12T05:51:02.752Z,101097.08
2024-04-12T05:54:05.445Z,101100.66
2024-04-12T05:57:19.420Z,101106.50
2024-04-12T05:59:56.746Z,101110.59
2024-04-12T06:02:49.911Z,101115.80
2024-04-12T06:05:32.227Z,101121.08
2024-04-12T06:08:14.041Z,101122.91
2024-04-12T06:10:51.173Z,101129.23
2024-04-12T06:13:27.334Z,101135.65
2024-04-12T06:15:55.950Z,101138.84
2024-04-12T06:18:36.656Z,101143.02
2024-04-12T06:21:25.963Z,101143.37
2024-04-12T06:24:01.005Z,101140.58
2024-04-12T06:27:10.795Z,101139.01
2024-04-12T06:30:06.620Z,101135.43
2024-04-12T06:32:37.641Z,101138.23
2024-04-12T06:35:35.203Z,101133.59
2024-04-12T06:38:27.316Z,101139.21
2024-04-12T06:41:04.659Z,101139.99
2024-04-12T06:43:56.974Z,101146.05
2024-04-12T06:46:48.805Z,101151.40
2024-04-12T06:49:38.385Z,101157.02
2024-04-12T06:52:42.944Z,101155.89
2024-04-12T06:55:31.681Z,101160.54
2024-04-12T06:58:23.281Z,101164.40
2024-04-12T07:01:25.045Z,101166.57
2024-04-12T07:04:11.865Z,101170.77
2024-04-12T07:07:25.119Z,101171.08
2024-04-12T07:10:22.836Z,101175.41
2024-04-12T07:12:59.713Z,101172.90
2024-04-12T07:15:35.787Z,101172.16
2024-04-12T07:18:42.236Z,101169.84
2024-04-12T07:21:25.765Z,101168.78
2024-04-12T07:27:47.643Z,101173.64
2024-04-12T07:30:45.305Z,101172.73
2024-04-12T07:33:53.649Z,101174.02
2024-04-12T07:36:36.915Z,101180.66
2024-04-12T07:39:16.448Z,101182.71
2024-04-12T07:42:10.599Z,101187.31
2024-04-12T07:44:50.626Z,101189.27
2024-04-12T07:47:56.513Z,101182.94
2024-04-12T07:51:06.844Z,101180.46
2024-04-12T07:53:52.103Z,101178.65
2024-04-12T07:56:45.992Z,101175.88
2024-04-12T07:59:50.969Z,101177.27
2024-04-12T08:02:57.664Z,101184.62
2024-04-12T08:05:58.575Z,101185.13
2024-04-12T08:09:07.721Z,101180.27
2024-04-12T08:12:00.910Z,101187.24
2024-04-12T08:15:10.251Z,101185.96
2024-04-12T08:18:01.400Z,101192.27
2024-04-12T08:20:58.983Z,101196.66
2024-04-12T08:23:44.397Z,101203.97
2024-04-12T08:26:41.193Z,101197.06
2024-04-12T08:29:29.566Z,101201.35
2024-04-12T08:32:39.304Z,101200.85
2024-04-12T08:35:40.555Z,101197.61
2024-04-12T08:38:31.406Z,101196.48
2024-04-12T08:41:17.972Z,101197.64
2024-04-12T08:44:14.101Z,101196.50
2024-04-12T08:46:55.297Z,101199.00
2024-04-12T08:49:50.534Z,101202.11
2024-04-12T08:52:51.844Z,101198.38
2024-04-12T08:55:31.983Z,101201.88
2024-04-12T08:58:38.395Z,101200.40
2024-04-12T09:01:19.902Z,101201.55
2024-04-12T09:04:37.377Z,101200.06
2024-04-12T09:07:16.060Z,101202.41
2024-04-12T09:10:33.833Z,101201.56
2024-04-12T09:16:12.272Z,101197.73
2024-04-12T09:18:53.432Z,101197.71
2024-04-12T09:22:04.750Z,101192.84
2024-04-12T09:35:15.711Z,101192.45
2024-04-12T09:38:13.555Z,101190.83
2024-04-12T09:45:16.187Z,101182.41
2024-04-12T09:48:27.622Z,101185.27
2024-04-12T09:51:29.016Z,101188.38
2024-04-12T09:54:59.468Z,101180.60
2024-04-12T09:58:18.531Z,101179.27
2024-04-12T10:01:31.970Z,101180.41
2024-04-12T10:04:21.238Z,101176.26
2024-04-12T10:10:26.429Z,101171.14
2024-04-12T10:13:38.004Z,101182.14
2024-04-12T10:17:04.509Z,101171.73
2024-04-12T10:20:44.120Z,101173.75
2024-04-12T10:24:33.363Z,101171.77
2024-04-12T10:31:58.112Z,101167.81
2024-04-12T10:35:03.752Z,101161.85
2024-04-12T10:37:45.951Z,101161.95
2024-04-12T10:40:25.090Z,101165.56
2024-04-12T10:43:18.007Z,101163.67
2024-04-12T10:46:04.708Z,101161.98
2024-04-12T10:48:45.951Z,101155.99
2024-04-12T10:51:30.281Z,101149.25
2024-04-12T10:54:46.720Z,101146.92
2024-04-12T10:57:51.833Z,101144.99
2024-04-12T11:00:55.269Z,101149.35
2024-04-12T11:04:24.953Z,101142.93
2024-04-12T11:07:13.707Z,101136.36
2024-04-12T11:10:26.211Z,101138.27
2024-04-12T11:13:23.896Z,101133.48
2024-04-12T11:16:55.503Z,101132.64
2024-04-12T11:20:06.635Z,101129.36
2024-04-12T11:23:04.895Z,101121.33
2024-04-12T11:26:05.548Z,101117.58
2024-04-12T11:29:06.849Z,101108.81
2024-04-12T11:31:41.948Z,101101.90
2024-04-12T11:34:41.476Z,101095.95
2024-04-12T11:37:31.343Z,101093.34
2024-04-12T11:40:33.640Z,101088.83
2024-04-12T11:47:10.880Z,101084.79
2024-04-12T11:50:24.255Z,101077.88
2024-04-12T11:53:40.603Z,101072.94
2024-04-12T11:57:04.238Z,101069.58
2024-04-12T11:59:59.815Z,101067.91
2024-04-12T12:02:54.728Z,101061.32
2024-04-12T12:05:38.983Z,101057.92
2024-04-12T12:08:56.298Z,101057.52
2024-04-12T12:11:53.977Z,101057.65
2024-04-12T12:15:31.545Z,101058.75
2024-04-12T12:18:49.326Z,101053.84
2024-04-12T12:22:21.894Z,101055.30
2024-04-12T12:25:45.082Z,101044.88
2024-04-12T12:29:31.422Z,101040.12
2024-04-12T12:34:29.502Z,101040.40
2024-04-12T12:37:30.813Z,101041.70
2024-04-12T12:40:44.078Z,101039.11
2024-04-12T12:47:16.712Z,101034.14
2024-04-12T12:50:33.408Z,101033.34
2024-04-12T12:53:12.705Z,101032.01
2024-04-12T12:56:24.287Z,101029.39
2024-04-12T12:59:12.983Z,101030.05
2024-04-12T13:02:04.532Z,101029.45
2024-04-12T13:04:58.491Z,101034.58
2024-04-12T13:07:57.588Z,101036.70
2024-04-12T13:11:07.956Z,101032.52
2024-04-12T13:14:20.162Z,101030.67
2024-04-12T13:17:28.153Z,101027.30
2024-04-12T13:20:25.659Z,101031.66
2024-04-12T13:23:17.155Z,101017.97
2024-04-12T13:29:21.497Z,101009.16
2024-04-12T13:32:17.513Z,101004.19
2024-04-12T13:35:39.540Z,100992.33
2024-04-12T13:38:51.271Z,100990.02
2024-04-12T13:42:15.373Z,100993.80
2024-04-12T13:45:29.814Z,100989.27
2024-04-12T13:48:52.717Z,100989.10
2024-04-12T13:55:27.831Z,100995.89
2024-04-12T14:02:11.496Z,101001.20
2024-04-12T14:05:04.889Z,100993.34
2024-04-12T14:08:30.504Z,100992.96
2024-04-12T14:11:09.325Z,100993.24
2024-04-12T14:13:47.529Z,100989.96
2024-04-12T14:17:08.427Z,100981.73
2024-04-12T14:19:41.340Z,100985.81
2024-04-12T14:22:26.836Z,100981.49
2024-04-12T14:25:14.139Z,100979.35
2024-04-12T14:28:21.865Z,100975.64
2024-04-12T14:30:59.315Z,100978.85
2024-04-12T14:33:55.238Z,100985.02
2024-04-12T14:36:58.880Z,100983.27
2024-04-12T14:40:02.710Z,100979.27
2024-04-12T14:42:53.848Z,100973.67
2024-04-12T14:45:55.797Z,100963.40
2024-04-12T14:49:17.134Z,100960.59
2024-04-12T14:52:29.171Z,100955.76
2024-04-12T14:55:20.785Z,100951.59
2024-04-12T14:57:53.597Z,100951.92
2024-04-12T15:00:57.960Z,100947.39
2024-04-12T15:04:03.566Z,100942.69
2024-04-12T15:07:53.172Z,100938.94
2024-04-12T15:10:44.792Z,100946.66
2024-04-12T15:13:50.318Z,100941.96
2024-04-12T15:16:44.100Z,100939.04
2024-04-12T15:20:25.203Z,100932.39
2024-04-12T15:23:40.665Z,100926.73
2024-04-12T15:26:57.497Z,100925.45
2024-04-12T15:30:21.995Z,100919.23
2024-04-12T15:33:19.205Z,100921.68
2024-04-12T15:36:37.397Z,100921.34
2024-04-12T15:39:40.437Z,100922.29
2024-04-12T15:42:49.768Z,100928.95
2024-04-12T15:46:05.298Z,100930.73
2024-04-12T15:48:53.423Z,100929.14
2024-04-12T15:51:45.384Z,100932.69
2024-04-12T15:54:53.933Z,100929.55
2024-04-12T15:57:51.152Z,100929.81
2024-04-12T16:01:19.081Z,100928.63
2024-04-12T16:04:20.971Z,100926.33
2024-04-12T16:07:23.484Z,100928.67
2024-04-12T16:10:40.293Z,100928.15
2024-04-12T16:13:51.201Z,100920.31
2024-04-12T16:16:31.115Z,100914.77
2024-04-12T16:19:08.211Z,100915.92
2024-04-12T16:22:10.176Z,100918.52
2024-04-12T16:24:42.848Z,100918.34
2024-04-12T16:27:23.593Z,100917.63
2024-04-12T16:30:10.069Z,100917.95
2024-04-12T16:32:54.730Z,100922.73
2024-04-12T16:35:36.063Z,100917.81
2024-04-12T16:38:25.343Z,100915.89
2024-04-12T16:41:01.988Z,100918.44
2024-04-12T16:43:43.164Z,100922.13
2024-04-12T16:46:48.949Z,100919.91
2024-04-12T16:49:37.135Z,100919.45
2024-04-12T16:52:32.619Z,100918.85
2024-04-12T16:55:30.483Z,100923.33
2024-04-12T16:58:10.937Z,100926.23
2024-04-12T17:01:00.119Z,100924.02
2024-04-12T17:03:45.809Z,100925.06
2024-04-12T17:07:05.782Z,100925.73
2024-04-12T17:10:23.150Z,100926.53
2024-04-12T17:13:09.123Z,100925.00
2024-04-12T17:15:47.318Z,100929.46
2024-04-12T17:18:35.439Z,100924.80
2024-04-12T17:21:29.757Z,100922.74
2024-04-12T17:24:16.518Z,100927.23
2024-04-12T17:26:56.926Z,100931.14
2024-04-12T17:29:58.401Z,100929.77
2024-04-12T17:33:06.890Z,100928.78
2024-04-12T17:36:12.160Z,100929.13
2024-04-12T17:38:50.077Z,100925.38
2024-04-12T17:41:37.887Z,100929.74
2024-04-12T17:44:39.129Z,100930.77
2024-04-12T17:47:19.453Z,100930.72
2024-04-12T17:49:56.270Z,100933.13
2024-04-12T17:52:43.813Z,100930.13
2024-04-12T17:55:32.481Z,100930.89
2024-04-12T17:58:43.959Z,100934.38
2024-04-12T18:01:47.922Z,100935.82
2024-04-12T18:04:28.442Z,100936.94
2024-04-12T18:07:10.126Z,100939.13
2024-04-12T18:09:45.476Z,100940.83
2024-04-12T18:12:27.865Z,100938.05
2024-04-12T18:15:07.619Z,100939.47
2024-04-12T18:17:49.860Z,100936.02
2024-04-12T18:20:43.697Z,100941.10
2024-04-12T18:23:22.157Z,100941.38
2024-04-12T18:25:59.916Z,100936.81
2024-04-12T18:28:36.195Z,100938.88
2024-04-12T18:31:23.402Z,100940.71
2024-04-12T18:33:59.841Z,100938.84
2024-04-12T18:37:03.025Z,100939.37
2024-04-12T18:39:59.890Z,100940.43
2024-04-12T18:42:51.335Z,100938.73
2024-04-12T18:46:04.025Z,100938.83
2024-04-12T18:48:48.358Z,100940.77
2024-04-12T18:51:23.340Z,100944.91
2024-04-12T18:53:55.307Z,100943.98
2024-04-12T18:56:26.243Z,100941.86
2024-04-12T18:59:11.221Z,100940.87
2024-04-12T19:01:53.037Z,100938.95
2024-04-12T19:04:25.436Z,100939.10
2024-04-12T19:07:29.496Z,100941.05
2024-04-12T19:10:06.696Z,100939.08
2024-04-12T19:12:40.705Z,100936.13
2024-04-12T19:15:16.423Z,100939.67
2024-04-12T19:17:53.392Z,100940.21
2024-04-12T19:21:00.924Z,100939.38
2024-04-12T19:23:54.488Z,100939.38
2024-04-12T19:26:29.772Z,100936.36
2024-04-12T19:29:43.717Z,100937.30
2024-04-12T19:32:18.321Z,100940.46
2024-04-12T19:35:00.599Z,100937.91
2024-04-12T19:38:13.729Z,100942.23
2024-04-12T19:40:54.125Z,100939.80
2024-04-12T19:43:35.226Z,100941.90
2024-04-12T19:46:16.270Z,100948.51
2024-04-12T19:48:53.586Z,100948.73
2024-04-12T19:55:58.150Z,100948.06
2024-04-12T19:59:33.973Z,100950.02
2024-04-12T20:02:47.534Z,100949.02
2024-04-12T20:06:09.634Z,100951.08
2024-04-12T20:08:38.951Z,100949.12
2024-04-12T20:11:33.092Z,100942.05
2024-04-12T20:14:32.411Z,100947.35
2024-04-12T20:20:43.970Z,100951.34
2024-04-12T20:26:42.159Z,100956.92
2024-04-12T20:29:18.943Z,100958.30
2024-04-12T20:32:07.718Z,100963.89
2024-04-12T20:35:07.007Z,100964.02
2024-04-12T20:37:47.271Z,100965.41
2024-04-12T20:40:21.760Z,100965.52
2024-04-12T20:43:01.650Z,100967.78
2024-04-12T20:45:45.288Z,100960.20
2024-04-12T20:48:18.917Z,100965.19
2024-04-12T20:50:59.317Z,100961.77
2024-04-12T20:53:33.769Z,100963.42
2024-04-12T20:56:02.735Z,100962.60
2024-04-12T20:58:35.759Z,100963.34
2024-04-12T21:01:05.565Z,100968.86
2024-04-12T21:03:39.443Z,100966.55
2024-04-12T21:06:10.532Z,100965.30
2024-04-12T21:08:44.103Z,100965.71
2024-04-12T21:11:22.221Z,100964.19
2024-04-12T21:14:07.589Z,100962.75
2024-04-12T21:16:41.692Z,100961.50
2024-04-12T21:19:13.625Z,100959.54
2024-04-12T21:21:58.741Z,100957.91
2024-04-12T21:24:31.621Z,100960.35
2024-04-12T21:27:04.121Z,100964.56
2024-04-12T21:29:35.291Z,100963.18
2024-04-12T21:32:05.493Z,100960.91
2024-04-12T21:34:40.301Z,100964.11
2024-04-12T21:37:11.135Z,100964.31
2024-04-12T21:39:52.237Z,100963.15
2024-04-12T21:42:25.567Z,100966.34
2024-04-12T21:45:00.535Z,100967.62
2024-04-12T21:47:29.010Z,100968.29
2024-04-12T21:50:09.699Z,100966.64
2024-04-12T21:52:54.692Z,100964.18
2024-04-12T21:55:31.447Z,100962.87
2024-04-12T21:58:08.015Z,100959.73
2024-04-12T22:00:43.990Z,100957.97
2024-04-12T22:03:19.241Z,100958.98
2024-04-12T22:05:58.294Z,100952.90
2024-04-12T22:08:37.242Z,100953.45
2024-04-12T22:11:25.910Z,100948.61
2024-04-12T22:14:01.635Z,100947.27
2024-04-12T22:16:49.896Z,100943.40
2024-04-12T22:19:32.855Z,100941.26
2024-04-12T22:22:06.439Z,100946.30
2024-04-12T22:24:36.404Z,100947.08
2024-04-12T22:27:08.136Z,100946.39
2024-04-12T22:29:41.285Z,100945.92
2024-04-12T22:32:14.428Z,100944.24
2024-04-12T22:34:45.254Z,100943.38
2024-04-12T22:37:19.420Z,100940.58
2024-04-12T22:39:59.611Z,100937.41
2024-04-12T22:42:30.370Z,100939.52
2024-04-12T22:45:03.552Z,100939.63
2024-04-12T22:47:50.968Z,100934.40
2024-04-12T22:50:33.186Z,100936.56
2024-04-12T22:53:22.361Z,100935.79
2024-04-12T22:55:50.415Z,100940.19
2024-04-12T22:58:22.677Z,100939.38
2024-04-12T23:01:01.032Z,100940.31
2024-04-12T23:03:34.288Z,100937.08
2024-04-12T23:06:20.648Z,100938.62
2024-04-12T23:09:04.377Z,100941.21
2024-04-12T23:11:37.846Z,100940.77
2024-04-12T23:14:19.129Z,100939.27
2024-04-12T23:16:51.656Z,100940.12
2024-04-12T23:19:24.734Z,100941.27
2024-04-12T23:22:17.332Z,100938.81
2024-04-12T23:24:51.474Z,100937.45
2024-04-12T23:27:29.654Z,100936.42
2024-04-12T23:30:13.578Z,100938.34
2024-04-12T23:32:59.865Z,100938.20
2024-04-12T23:35:34.324Z,100938.28
2024-04-12T23:38:07.725Z,100938.67
2024-04-12T23:43:48.665Z,100939.06
2024-04-12T23:46:33.170Z,100939.33
2024-04-12T23:49:21.871Z,100939.75
2024-04-12T23:52:02.365Z,100943.84
2024-04-12T23:54:39.061Z,100942.92
2024-04-12T23:57:23.051Z,100941.01
2024-04-12T23:59:56.305Z,100937.04
